TAF GCTS
GCTS 090800Z 0909/1009 05025KT 9999 FEW030 TX22/0913Z TN17/1006Z TEMPO 0911/1001 07025G37KT=
METAR GCTS
GCTS 090900Z 05010KT 9999 FEW030 19/12 Q1025 NOSIG=
GCTS 090830Z 05012KT 9999 FEW030 18/13 Q1025 NOSIG=
GCTS 090800Z 05012KT 9999 FEW030 18/13 Q1025 NOSIG=
GCTS 090730Z 05015KT 9999 SCT030 18/14 Q1025 NOSIG=
GCTS 090700Z 05017KT 9999 SCT025 18/14 Q1025 NOSIG=
WC GCTS
WS GCTS
WV GCTS